Arctic Taglu — CY8968 — position and weather

sailwx.info

Track history (hours):
 
Tides and Currents Weather Stations Pressure Air Temp Water Temp Dewpoint Dewpoint Depression Visibility Wind Speed Wind Dir Waves Ship Positions

Arctic Taglu

Last reported at 2014-Sep-17 04:33 UTC. Time now 2014-Sep-17 05:32 UTC.
Position N 49°07' W 123°07'.

Length 33 m; draft 6 m.

Type: Tug. MMSI: 316003483.

Date/timePositionNaut miles runAvg speedWind from/ knotsBaromVisibWave heightAir tempDewpointWater temp
2014-Sep-17 04:33N 49°07' W 123°07'4 3.5
2014-Sep-17 03:33N 49°09' W 123°02'0 0.0
2014-Sep-17 02:28N 49°09' W 123°02'0 0.0
2014-Sep-17 01:31N 49°09' W 123°02'0 0.0
2014-Sep-17 00:31N 49°09' W 123°02'0 0.0
2014-Sep-16 23:31N 49°09' W 123°02'0 0.0
2014-Sep-16 22:31N 49°09' W 123°02'0 0.0
2014-Sep-16 21:31N 49°09' W 123°02'0 0.0
2014-Sep-16 20:31N 49°09' W 123°02'0 0.0
2014-Sep-16 19:31N 49°09' W 123°02'0 0.0
2014-Sep-16 18:31N 49°09' W 123°02'0 0.0
2014-Sep-16 17:28N 49°09' W 123°02'0 0.0
2014-Sep-16 16:31N 49°09' W 123°02'0 0.0
2014-Sep-16 15:33N 49°09' W 123°02'0 0.0
2014-Sep-16 14:33N 49°09' W 123°02'4 4.4
2014-Sep-16 13:34N 49°06' W 123°08'6 6.1
2014-Sep-16 12:33N 49°06' W 123°18'10 9.7
2014-Sep-16 11:34N 49°09' W 123°32'1010.1
2014-Sep-16 10:33N 49°12' W 123°46'7 6.7
2014-Sep-16 09:34N 49°10' W 123°56'0 0.0
2014-Sep-16 08:33N 49°10' W 123°56'6 5.8
2014-Sep-16 07:33N 49°13' W 123°48'1010.0
2014-Sep-16 06:34N 49°09' W 123°34'10 9.8
2014-Sep-16 05:34N 49°06' W 123°20'10 9.7
2014-Sep-16 04:34N 49°07' W 123°05'2 2.4
2014-Sep-16 03:34N 49°09' W 123°02'0 0.0
2014-Sep-16 02:33N 49°09' W 123°02'0 0.0
2014-Sep-16 01:33N 49°09' W 123°02'0 0.0
2014-Sep-16 00:33N 49°09' W 123°02'0 0.0
2014-Sep-15 23:33N 49°09' W 123°02'0 0.0
2014-Sep-15 22:33N 49°09' W 123°02'0 0.0
2014-Sep-15 21:33N 49°09' W 123°02'0 0.0
2014-Sep-15 20:33N 49°09' W 123°02'0 0.0
2014-Sep-15 19:33N 49°09' W 123°02'0 0.0
2014-Sep-15 18:33N 49°09' W 123°02'0 0.0
2014-Sep-15 17:33N 49°09' W 123°02'0 0.0
2014-Sep-15 16:33N 49°09' W 123°02'0 0.0
2014-Sep-15 15:33N 49°09' W 123°02'0 0.0
2014-Sep-15 14:33N 49°09' W 123°02'0 0.0
2014-Sep-15 13:33N 49°09' W 123°02'0 0.0
2014-Sep-15 12:33N 49°09' W 123°02'0 0.0
2014-Sep-15 11:33N 49°09' W 123°02'0 0.0
2014-Sep-15 10:30N 49°09' W 123°02'0 0.0
2014-Sep-15 09:33N 49°09' W 123°02'0 0.0
2014-Sep-15 08:33N 49°09' W 123°02'0 0.0
2014-Sep-15 07:33N 49°09' W 123°02'0 0.0
2014-Sep-15 06:30N 49°09' W 123°02'0 0.0
2014-Sep-15 05:33N 49°09' W 123°02'0 0.0
2014-Sep-15 04:33N 49°09' W 123°02'0 0.0
2014-Sep-15 03:33N 49°09' W 123°02'0 0.0
2014-Sep-15 02:33N 49°09' W 123°02'0 0.0
2014-Sep-15 01:33N 49°09' W 123°02'0 0.0
2014-Sep-15 00:33N 49°09' W 123°02'0 0.0
2014-Sep-14 23:33N 49°09' W 123°02'0 0.0
2014-Sep-14 22:33N 49°09' W 123°02'0 0.0
2014-Sep-14 21:33N 49°09' W 123°02'0 0.0
2014-Sep-14 20:33N 49°09' W 123°02'0 0.0
2014-Sep-14 19:33N 49°09' W 123°02'0 0.0
2014-Sep-14 18:33N 49°09' W 123°02'0 0.0
2014-Sep-14 17:33N 49°09' W 123°02'0 0.0
2014-Sep-14 16:33N 49°09' W 123°02'0 0.0
2014-Sep-14 15:33N 49°09' W 123°02'0 0.0
2014-Sep-14 14:33N 49°09' W 123°02'0 0.0
2014-Sep-14 13:33N 49°09' W 123°02'0 0.0
2014-Sep-14 12:33N 49°09' W 123°02'0 0.0
2014-Sep-14 11:33N 49°09' W 123°02'0 0.0
2014-Sep-14 10:33N 49°09' W 123°02'0 0.0
2014-Sep-14 09:33N 49°09' W 123°02'0 0.0
2014-Sep-14 08:30N 49°09' W 123°02'0 0.0
2014-Sep-14 07:33N 49°09' W 123°02'0 0.0
2014-Sep-14 06:33N 49°09' W 123°02'0 0.0
2014-Sep-14 05:30N 49°09' W 123°02'0 0.0
2014-Sep-14 04:33N 49°09' W 123°02'0 0.0
2014-Sep-14 03:33N 49°09' W 123°02'0 0.0
2014-Sep-14 02:33N 49°09' W 123°02'0 0.0
2014-Sep-14 01:33N 49°09' W 123°02'0 0.0
2014-Sep-13 21:33N 49°09' W 123°02'0 0.0
2014-Sep-13 20:33N 49°09' W 123°02'0 0.0
2014-Sep-13 19:33N 49°09' W 123°02'0 0.0
2014-Sep-13 18:33N 49°09' W 123°02'0 0.0
2014-Sep-13 17:33N 49°09' W 123°02'0 0.0
2014-Sep-13 16:33N 49°09' W 123°02'0 0.0
2014-Sep-13 15:33N 49°09' W 123°02'0 0.0
2014-Sep-13 14:34N 49°09' W 123°02'4 3.9
2014-Sep-13 13:34N 49°06' W 123°07'9 8.5
2014-Sep-13 12:34N 49°06' W 123°20'10 9.6
2014-Sep-13 11:34N 49°09' W 123°34'10 9.9
2014-Sep-13 10:34N 49°13' W 123°48'6 5.6
2014-Sep-13 09:33N 49°10' W 123°56'0 0.0
2014-Sep-13 08:32N 49°10' W 123°56'7 7.1
2014-Sep-13 07:34N 49°13' W 123°46'10 9.7
2014-Sep-13 06:33N 49°10' W 123°32'9 9.0
2014-Sep-13 05:33N 49°06' W 123°19'9 8.9
2014-Sep-13 04:34N 49°07' W 123°06'3 2.9
2014-Sep-13 03:34N 49°09' W 123°02'0 0.0
2014-Sep-13 02:34N 49°09' W 123°02'0 0.0
2014-Sep-13 01:34N 49°09' W 123°02'0 0.0
2014-Sep-13 00:34N 49°09' W 123°02'0 0.0
2014-Sep-12 23:33N 49°09' W 123°02'0 0.0
2014-Sep-12 22:34N 49°09' W 123°02'0 0.0
2014-Sep-12 21:34N 49°09' W 123°02'0 0.0
2014-Sep-12 20:34N 49°09' W 123°02'0 0.0
2014-Sep-12 19:34N 49°09' W 123°02'0 0.0
2014-Sep-12 18:33N 49°09' W 123°02'0 0.0
2014-Sep-12 17:33N 49°09' W 123°02'0 0.0
2014-Sep-12 16:34N 49°09' W 123°02'0 0.0
2014-Sep-12 15:33N 49°09' W 123°02'0 0.0
2014-Sep-12 14:34N 49°09' W 123°02'6 5.9
2014-Sep-12 13:34N 49°07' W 123°11'7 7.4
2014-Sep-12 12:33N 49°06' W 123°22'9 9.4
2014-Sep-12 11:34N 49°10' W 123°35'10 9.5
2014-Sep-12 10:33N 49°13' W 123°49'5 5.4
2014-Sep-12 09:34N 49°10' W 123°56'0 0.2
2014-Sep-12 08:33N 49°10' W 123°56'8 8.0
2014-Sep-12 07:33N 49°12' W 123°44'9 9.4
2014-Sep-12 06:33N 49°09' W 123°30'9 9.1
2014-Sep-12 05:34N 49°07' W 123°17'8 8.4
2014-Sep-12 04:34N 49°08' W 123°04'2 1.6
2014-Sep-12 03:33N 49°09' W 123°02'0 0.0
2014-Sep-12 02:34N 49°09' W 123°02'0 0.0
2014-Sep-12 01:34N 49°09' W 123°02'0 0.0
2014-Sep-12 00:34N 49°09' W 123°02'0 0.0
2014-Sep-11 23:34N 49°09' W 123°02'0 0.0
2014-Sep-11 22:34N 49°09' W 123°02'0 0.0
2014-Sep-11 21:34N 49°09' W 123°02'0 0.0
2014-Sep-11 20:34N 49°09' W 123°02'0 0.0
2014-Sep-11 19:34N 49°09' W 123°02'0 0.0
2014-Sep-11 18:34N 49°09' W 123°02'0 0.0
2014-Sep-11 17:34N 49°09' W 123°02'0 0.0
2014-Sep-11 16:34N 49°09' W 123°02'0 0.0
2014-Sep-11 15:33N 49°09' W 123°02'0 0.0
2014-Sep-11 14:33N 49°09' W 123°02'5 5.1
2014-Sep-11 13:34N 49°07' W 123°09'9 9.1
2014-Sep-11 12:33N 49°07' W 123°23'9 9.1
2014-Sep-11 11:34N 49°10' W 123°36'9 9.3
2014-Sep-11 10:34N 49°13' W 123°50'5 4.7
2014-Sep-11 09:33N 49°10' W 123°56'0 0.0
2014-Sep-11 08:33N 49°10' W 123°56'6 5.9
2014-Sep-11 07:33N 49°13' W 123°48'10 9.5
2014-Sep-11 06:33N 49°10' W 123°35'9 9.4
2014-Sep-11 05:34N 49°07' W 123°21'10 9.9
2014-Sep-11 04:34N 49°07' W 123°06'3 3.3
2014-Sep-11 03:33N 49°09' W 123°02'0 0.0
2014-Sep-11 02:34N 49°09' W 123°02'0 0.0
2014-Sep-11 01:34N 49°09' W 123°02'0 0.0
2014-Sep-11 00:34N 49°09' W 123°02'0 0.0
2014-Sep-10 23:34N 49°09' W 123°02'0 0.0
2014-Sep-10 22:33N 49°09' W 123°02'0 0.0
2014-Sep-10 21:34N 49°09' W 123°02'0 0.0
2014-Sep-10 20:34N 49°09' W 123°02'0 0.0
2014-Sep-10 19:34N 49°09' W 123°02'0 0.0
2014-Sep-10 18:33N 49°09' W 123°02'0 0.0
2014-Sep-10 17:34N 49°09' W 123°02'0 0.0
2014-Sep-10 16:34N 49°09' W 123°02'0 0.0
2014-Sep-10 15:34N 49°09' W 123°02'0 0.0
2014-Sep-10 14:34N 49°09' W 123°02'4 4.0
2014-Sep-10 13:33N 49°07' W 123°08'9 9.3
2014-Sep-10 12:34N 49°07' W 123°22'9 9.5
2014-Sep-10 11:34N 49°10' W 123°35'10 9.5
2014-Sep-10 10:34N 49°13' W 123°49'5 5.2
2014-Sep-10 09:34N 49°10' W 123°56'0 0.0
2014-Sep-10 08:34N 49°10' W 123°56'5 4.9
2014-Sep-10 07:34N 49°13' W 123°50'10 9.5
2014-Sep-10 06:33N 49°11' W 123°35'9 9.1
2014-Sep-10 05:34N 49°08' W 123°22'10 9.6
2014-Sep-10 04:33N 49°07' W 123°08'4 4.1
2014-Sep-10 03:34N 49°09' W 123°02'0 0.0
2014-Sep-10 02:34N 49°09' W 123°02'0 0.0
2014-Sep-10 01:34N 49°09' W 123°02'0 0.0
2014-Sep-10 00:34N 49°09' W 123°02'0 0.0
2014-Sep-09 23:34N 49°09' W 123°02'0 0.0
2014-Sep-09 22:33N 49°09' W 123°02'0 0.0
2014-Sep-09 21:34N 49°09' W 123°02'0 0.0
2014-Sep-09 20:34N 49°09' W 123°02'0 0.0
2014-Sep-09 19:34N 49°09' W 123°02'0 0.0
2014-Sep-09 18:33N 49°09' W 123°02'0 0.0
2014-Sep-09 17:34N 49°09' W 123°02'0 0.0
2014-Sep-09 16:33N 49°09' W 123°02'0 0.0
2014-Sep-09 15:34N 49°09' W 123°02'0 0.0
2014-Sep-09 14:33N 49°09' W 123°02'5 4.7
2014-Sep-09 13:34N 49°06' W 123°09'8 7.8
2014-Sep-09 12:33N 49°06' W 123°21'10 9.7
2014-Sep-09 11:33N 49°10' W 123°35'10 9.8
2014-Sep-09 10:33N 49°13' W 123°49'5 5.5
2014-Sep-09 09:34N 49°10' W 123°56'0 0.0
2014-Sep-09 08:34N 49°10' W 123°56'6 6.4
2014-Sep-09 07:34N 49°13' W 123°47'10 9.6
2014-Sep-09 06:34N 49°10' W 123°33'9 9.3
2014-Sep-09 05:34N 49°06' W 123°21'1010.1
2014-Sep-09 04:34N 49°07' W 123°05'2 2.4
2014-Sep-09 03:33N 49°09' W 123°02'0 0.0
2014-Sep-09 02:33N 49°09' W 123°02'0 0.0
2014-Sep-09 01:32N 49°09' W 123°02'0 0.0
2014-Sep-09 00:32N 49°09' W 123°02'0 0.0
2014-Sep-08 23:32N 49°09' W 123°02'0 0.0
2014-Sep-08 22:32N 49°09' W 123°02'0 0.0
2014-Sep-08 21:32N 49°09' W 123°02'0 0.0
2014-Sep-08 20:32N 49°09' W 123°02'0 0.0
2014-Sep-08 19:32N 49°09' W 123°02'0 0.0
2014-Sep-08 18:32N 49°09' W 123°02'0 0.0
2014-Sep-08 17:32N 49°09' W 123°02'0 0.0
2014-Sep-08 16:32N 49°09' W 123°02'0 0.0
2014-Sep-08 15:32N 49°09' W 123°02'0 0.0
2014-Sep-08 14:32N 49°09' W 123°02'0 0.0
2014-Sep-08 13:29N 49°09' W 123°02'0 0.0
2014-Sep-08 12:32N 49°09' W 123°02'0 0.0
2014-Sep-08 11:32N 49°09' W 123°02'0 0.0
2014-Sep-08 10:32N 49°09' W 123°02'0 0.0
2014-Sep-08 09:32N 49°09' W 123°02'0 0.0
2014-Sep-08 08:32N 49°09' W 123°02'0 0.0
2014-Sep-08 07:32N 49°09' W 123°02'0 0.0
2014-Sep-08 06:32N 49°09' W 123°02'0 0.0
2014-Sep-08 05:32N 49°09' W 123°02'0 0.0
2014-Sep-08 04:32N 49°09' W 123°02'0 0.0
2014-Sep-08 03:32N 49°09' W 123°02'0 0.0
2014-Sep-08 02:32N 49°09' W 123°02'0 0.0
2014-Sep-08 01:26N 49°09' W 123°02'0 0.0
2014-Sep-08 00:32N 49°09' W 123°02'0 0.0
2014-Sep-07 23:32N 49°09' W 123°02'0 0.0
2014-Sep-07 22:32N 49°09' W 123°02'0 0.0
2014-Sep-07 21:32N 49°09' W 123°02'0 0.0
2014-Sep-07 20:29N 49°09' W 123°02'0 0.0
2014-Sep-07 19:32N 49°09' W 123°02'0 0.0
2014-Sep-07 18:32N 49°09' W 123°02'0 0.0
2014-Sep-07 17:32N 49°09' W 123°02'0 0.0
2014-Sep-07 16:32N 49°09' W 123°02'0 0.0
2014-Sep-07 15:32N 49°09' W 123°02'0 0.0
2014-Sep-07 14:32N 49°09' W 123°02'0 0.0
2014-Sep-07 13:32N 49°09' W 123°02'0 0.0
2014-Sep-07 12:32N 49°09' W 123°02'0 0.0
2014-Sep-07 11:32N 49°09' W 123°02'0 0.0
2014-Sep-07 10:32N 49°09' W 123°02'0 0.0
2014-Sep-07 09:32N 49°09' W 123°02'0 0.0
2014-Sep-07 08:32N 49°09' W 123°02'0 0.0
2014-Sep-07 07:32N 49°09' W 123°02'0 0.0
2014-Sep-07 06:32N 49°09' W 123°02'0 0.0
2014-Sep-07 05:32N 49°09' W 123°02'  
Track history (hours):
 
Tides and Currents Weather Stations Pressure Air Temp Water Temp Dewpoint Dewpoint Depression Visibility Wind Speed Wind Dir Waves Ship Positions

Arctic Taglu

Last reported at 2014-Sep-17 04:33 UTC. Time now 2014-Sep-17 05:32 UTC.
Position N 49°07' W 123°07'.

Length 33 m; draft 6 m.

Type: Tug. MMSI: 316003483.

Date/timePositionNaut miles runAvg speedWind from/ knotsBaromVisibWave heightAir tempDewpointWater temp
2014-Sep-17 04:33N 49°07' W 123°07'4 3.5
2014-Sep-17 03:33N 49°09' W 123°02'0 0.0
2014-Sep-17 02:28N 49°09' W 123°02'0 0.0
2014-Sep-17 01:31N 49°09' W 123°02'0 0.0
2014-Sep-17 00:31N 49°09' W 123°02'0 0.0
2014-Sep-16 23:31N 49°09' W 123°02'0 0.0
2014-Sep-16 22:31N 49°09' W 123°02'0 0.0
2014-Sep-16 21:31N 49°09' W 123°02'0 0.0
2014-Sep-16 20:31N 49°09' W 123°02'0 0.0
2014-Sep-16 19:31N 49°09' W 123°02'0 0.0
2014-Sep-16 18:31N 49°09' W 123°02'0 0.0
2014-Sep-16 17:28N 49°09' W 123°02'0 0.0
2014-Sep-16 16:31N 49°09' W 123°02'0 0.0
2014-Sep-16 15:33N 49°09' W 123°02'0 0.0
2014-Sep-16 14:33N 49°09' W 123°02'4 4.4
2014-Sep-16 13:34N 49°06' W 123°08'6 6.1
2014-Sep-16 12:33N 49°06' W 123°18'10 9.7
2014-Sep-16 11:34N 49°09' W 123°32'1010.1
2014-Sep-16 10:33N 49°12' W 123°46'7 6.7
2014-Sep-16 09:34N 49°10' W 123°56'0 0.0
2014-Sep-16 08:33N 49°10' W 123°56'6 5.8
2014-Sep-16 07:33N 49°13' W 123°48'1010.0
2014-Sep-16 06:34N 49°09' W 123°34'10 9.8
2014-Sep-16 05:34N 49°06' W 123°20'10 9.7
2014-Sep-16 04:34N 49°07' W 123°05'2 2.4
2014-Sep-16 03:34N 49°09' W 123°02'0 0.0
2014-Sep-16 02:33N 49°09' W 123°02'0 0.0
2014-Sep-16 01:33N 49°09' W 123°02'0 0.0
2014-Sep-16 00:33N 49°09' W 123°02'0 0.0
2014-Sep-15 23:33N 49°09' W 123°02'0 0.0
2014-Sep-15 22:33N 49°09' W 123°02'0 0.0
2014-Sep-15 21:33N 49°09' W 123°02'0 0.0
2014-Sep-15 20:33N 49°09' W 123°02'0 0.0
2014-Sep-15 19:33N 49°09' W 123°02'0 0.0
2014-Sep-15 18:33N 49°09' W 123°02'0 0.0
2014-Sep-15 17:33N 49°09' W 123°02'0 0.0
2014-Sep-15 16:33N 49°09' W 123°02'0 0.0
2014-Sep-15 15:33N 49°09' W 123°02'0 0.0
2014-Sep-15 14:33N 49°09' W 123°02'0 0.0
2014-Sep-15 13:33N 49°09' W 123°02'0 0.0
2014-Sep-15 12:33N 49°09' W 123°02'0 0.0
2014-Sep-15 11:33N 49°09' W 123°02'0 0.0
2014-Sep-15 10:30N 49°09' W 123°02'0 0.0
2014-Sep-15 09:33N 49°09' W 123°02'0 0.0
2014-Sep-15 08:33N 49°09' W 123°02'0 0.0
2014-Sep-15 07:33N 49°09' W 123°02'0 0.0
2014-Sep-15 06:30N 49°09' W 123°02'0 0.0
2014-Sep-15 05:33N 49°09' W 123°02'0 0.0
2014-Sep-15 04:33N 49°09' W 123°02'0 0.0
2014-Sep-15 03:33N 49°09' W 123°02'0 0.0
2014-Sep-15 02:33N 49°09' W 123°02'0 0.0
2014-Sep-15 01:33N 49°09' W 123°02'0 0.0
2014-Sep-15 00:33N 49°09' W 123°02'0 0.0
2014-Sep-14 23:33N 49°09' W 123°02'0 0.0
2014-Sep-14 22:33N 49°09' W 123°02'0 0.0
2014-Sep-14 21:33N 49°09' W 123°02'0 0.0
2014-Sep-14 20:33N 49°09' W 123°02'0 0.0
2014-Sep-14 19:33N 49°09' W 123°02'0 0.0
2014-Sep-14 18:33N 49°09' W 123°02'0 0.0
2014-Sep-14 17:33N 49°09' W 123°02'0 0.0
2014-Sep-14 16:33N 49°09' W 123°02'0 0.0
2014-Sep-14 15:33N 49°09' W 123°02'0 0.0
2014-Sep-14 14:33N 49°09' W 123°02'0 0.0
2014-Sep-14 13:33N 49°09' W 123°02'0 0.0
2014-Sep-14 12:33N 49°09' W 123°02'0 0.0
2014-Sep-14 11:33N 49°09' W 123°02'0 0.0
2014-Sep-14 10:33N 49°09' W 123°02'0 0.0
2014-Sep-14 09:33N 49°09' W 123°02'0 0.0
2014-Sep-14 08:30N 49°09' W 123°02'0 0.0
2014-Sep-14 07:33N 49°09' W 123°02'0 0.0
2014-Sep-14 06:33N 49°09' W 123°02'0 0.0
2014-Sep-14 05:30N 49°09' W 123°02'0 0.0
2014-Sep-14 04:33N 49°09' W 123°02'0 0.0
2014-Sep-14 03:33N 49°09' W 123°02'0 0.0
2014-Sep-14 02:33N 49°09' W 123°02'0 0.0
2014-Sep-14 01:33N 49°09' W 123°02'0 0.0
2014-Sep-13 21:33N 49°09' W 123°02'0 0.0
2014-Sep-13 20:33N 49°09' W 123°02'0 0.0
2014-Sep-13 19:33N 49°09' W 123°02'0 0.0
2014-Sep-13 18:33N 49°09' W 123°02'0 0.0
2014-Sep-13 17:33N 49°09' W 123°02'0 0.0
2014-Sep-13 16:33N 49°09' W 123°02'0 0.0
2014-Sep-13 15:33N 49°09' W 123°02'0 0.0
2014-Sep-13 14:34N 49°09' W 123°02'4 3.9
2014-Sep-13 13:34N 49°06' W 123°07'9 8.5
2014-Sep-13 12:34N 49°06' W 123°20'10 9.6
2014-Sep-13 11:34N 49°09' W 123°34'10 9.9
2014-Sep-13 10:34N 49°13' W 123°48'6 5.6
2014-Sep-13 09:33N 49°10' W 123°56'0 0.0
2014-Sep-13 08:32N 49°10' W 123°56'7 7.1
2014-Sep-13 07:34N 49°13' W 123°46'10 9.7
2014-Sep-13 06:33N 49°10' W 123°32'9 9.0
2014-Sep-13 05:33N 49°06' W 123°19'9 8.9
2014-Sep-13 04:34N 49°07' W 123°06'3 2.9
2014-Sep-13 03:34N 49°09' W 123°02'0 0.0
2014-Sep-13 02:34N 49°09' W 123°02'0 0.0
2014-Sep-13 01:34N 49°09' W 123°02'0 0.0
2014-Sep-13 00:34N 49°09' W 123°02'0 0.0
2014-Sep-12 23:33N 49°09' W 123°02'0 0.0
2014-Sep-12 22:34N 49°09' W 123°02'0 0.0
2014-Sep-12 21:34N 49°09' W 123°02'0 0.0
2014-Sep-12 20:34N 49°09' W 123°02'0 0.0
2014-Sep-12 19:34N 49°09' W 123°02'0 0.0
2014-Sep-12 18:33N 49°09' W 123°02'0 0.0
2014-Sep-12 17:33N 49°09' W 123°02'0 0.0
2014-Sep-12 16:34N 49°09' W 123°02'0 0.0
2014-Sep-12 15:33N 49°09' W 123°02'0 0.0
2014-Sep-12 14:34N 49°09' W 123°02'6 5.9
2014-Sep-12 13:34N 49°07' W 123°11'7 7.4
2014-Sep-12 12:33N 49°06' W 123°22'9 9.4
2014-Sep-12 11:34N 49°10' W 123°35'10 9.5
2014-Sep-12 10:33N 49°13' W 123°49'5 5.4
2014-Sep-12 09:34N 49°10' W 123°56'0 0.2
2014-Sep-12 08:33N 49°10' W 123°56'8 8.0
2014-Sep-12 07:33N 49°12' W 123°44'9 9.4
2014-Sep-12 06:33N 49°09' W 123°30'9 9.1
2014-Sep-12 05:34N 49°07' W 123°17'8 8.4
2014-Sep-12 04:34N 49°08' W 123°04'2 1.6
2014-Sep-12 03:33N 49°09' W 123°02'0 0.0
2014-Sep-12 02:34N 49°09' W 123°02'0 0.0
2014-Sep-12 01:34N 49°09' W 123°02'0 0.0
2014-Sep-12 00:34N 49°09' W 123°02'0 0.0
2014-Sep-11 23:34N 49°09' W 123°02'0 0.0
2014-Sep-11 22:34N 49°09' W 123°02'0 0.0
2014-Sep-11 21:34N 49°09' W 123°02'0 0.0
2014-Sep-11 20:34N 49°09' W 123°02'0 0.0
2014-Sep-11 19:34N 49°09' W 123°02'0 0.0
2014-Sep-11 18:34N 49°09' W 123°02'0 0.0
2014-Sep-11 17:34N 49°09' W 123°02'0 0.0
2014-Sep-11 16:34N 49°09' W 123°02'0 0.0
2014-Sep-11 15:33N 49°09' W 123°02'0 0.0
2014-Sep-11 14:33N 49°09' W 123°02'5 5.1
2014-Sep-11 13:34N 49°07' W 123°09'9 9.1
2014-Sep-11 12:33N 49°07' W 123°23'9 9.1
2014-Sep-11 11:34N 49°10' W 123°36'9 9.3
2014-Sep-11 10:34N 49°13' W 123°50'5 4.7
2014-Sep-11 09:33N 49°10' W 123°56'0 0.0
2014-Sep-11 08:33N 49°10' W 123°56'6 5.9
2014-Sep-11 07:33N 49°13' W 123°48'10 9.5
2014-Sep-11 06:33N 49°10' W 123°35'9 9.4
2014-Sep-11 05:34N 49°07' W 123°21'10 9.9
2014-Sep-11 04:34N 49°07' W 123°06'3 3.3
2014-Sep-11 03:33N 49°09' W 123°02'0 0.0
2014-Sep-11 02:34N 49°09' W 123°02'0 0.0
2014-Sep-11 01:34N 49°09' W 123°02'0 0.0
2014-Sep-11 00:34N 49°09' W 123°02'0 0.0
2014-Sep-10 23:34N 49°09' W 123°02'0 0.0
2014-Sep-10 22:33N 49°09' W 123°02'0 0.0
2014-Sep-10 21:34N 49°09' W 123°02'0 0.0
2014-Sep-10 20:34N 49°09' W 123°02'0 0.0
2014-Sep-10 19:34N 49°09' W 123°02'0 0.0
2014-Sep-10 18:33N 49°09' W 123°02'0 0.0
2014-Sep-10 17:34N 49°09' W 123°02'0 0.0
2014-Sep-10 16:34N 49°09' W 123°02'0 0.0
2014-Sep-10 15:34N 49°09' W 123°02'0 0.0
2014-Sep-10 14:34N 49°09' W 123°02'4 4.0
2014-Sep-10 13:33N 49°07' W 123°08'9 9.3
2014-Sep-10 12:34N 49°07' W 123°22'9 9.5
2014-Sep-10 11:34N 49°10' W 123°35'10 9.5
2014-Sep-10 10:34N 49°13' W 123°49'5 5.2
2014-Sep-10 09:34N 49°10' W 123°56'0 0.0
2014-Sep-10 08:34N 49°10' W 123°56'5 4.9
2014-Sep-10 07:34N 49°13' W 123°50'10 9.5
2014-Sep-10 06:33N 49°11' W 123°35'9 9.1
2014-Sep-10 05:34N 49°08' W 123°22'10 9.6
2014-Sep-10 04:33N 49°07' W 123°08'4 4.1
2014-Sep-10 03:34N 49°09' W 123°02'0 0.0
2014-Sep-10 02:34N 49°09' W 123°02'0 0.0
2014-Sep-10 01:34N 49°09' W 123°02'0 0.0
2014-Sep-10 00:34N 49°09' W 123°02'0 0.0
2014-Sep-09 23:34N 49°09' W 123°02'0 0.0
2014-Sep-09 22:33N 49°09' W 123°02'0 0.0
2014-Sep-09 21:34N 49°09' W 123°02'0 0.0
2014-Sep-09 20:34N 49°09' W 123°02'0 0.0
2014-Sep-09 19:34N 49°09' W 123°02'0 0.0
2014-Sep-09 18:33N 49°09' W 123°02'0 0.0
2014-Sep-09 17:34N 49°09' W 123°02'0 0.0
2014-Sep-09 16:33N 49°09' W 123°02'0 0.0
2014-Sep-09 15:34N 49°09' W 123°02'0 0.0
2014-Sep-09 14:33N 49°09' W 123°02'5 4.7
2014-Sep-09 13:34N 49°06' W 123°09'8 7.8
2014-Sep-09 12:33N 49°06' W 123°21'10 9.7
2014-Sep-09 11:33N 49°10' W 123°35'10 9.8
2014-Sep-09 10:33N 49°13' W 123°49'5 5.5
2014-Sep-09 09:34N 49°10' W 123°56'0 0.0
2014-Sep-09 08:34N 49°10' W 123°56'6 6.4
2014-Sep-09 07:34N 49°13' W 123°47'10 9.6
2014-Sep-09 06:34N 49°10' W 123°33'9 9.3
2014-Sep-09 05:34N 49°06' W 123°21'1010.1
2014-Sep-09 04:34N 49°07' W 123°05'2 2.4
2014-Sep-09 03:33N 49°09' W 123°02'0 0.0
2014-Sep-09 02:33N 49°09' W 123°02'0 0.0
2014-Sep-09 01:32N 49°09' W 123°02'0 0.0
2014-Sep-09 00:32N 49°09' W 123°02'0 0.0
2014-Sep-08 23:32N 49°09' W 123°02'0 0.0
2014-Sep-08 22:32N 49°09' W 123°02'0 0.0
2014-Sep-08 21:32N 49°09' W 123°02'0 0.0
2014-Sep-08 20:32N 49°09' W 123°02'0 0.0
2014-Sep-08 19:32N 49°09' W 123°02'0 0.0
2014-Sep-08 18:32N 49°09' W 123°02'0 0.0
2014-Sep-08 17:32N 49°09' W 123°02'0 0.0
2014-Sep-08 16:32N 49°09' W 123°02'0 0.0
2014-Sep-08 15:32N 49°09' W 123°02'0 0.0
2014-Sep-08 14:32N 49°09' W 123°02'0 0.0
2014-Sep-08 13:29N 49°09' W 123°02'0 0.0
2014-Sep-08 12:32N 49°09' W 123°02'0 0.0
2014-Sep-08 11:32N 49°09' W 123°02'0 0.0
2014-Sep-08 10:32N 49°09' W 123°02'0 0.0
2014-Sep-08 09:32N 49°09' W 123°02'0 0.0
2014-Sep-08 08:32N 49°09' W 123°02'0 0.0
2014-Sep-08 07:32N 49°09' W 123°02'0 0.0
2014-Sep-08 06:32N 49°09' W 123°02'0 0.0
2014-Sep-08 05:32N 49°09' W 123°02'0 0.0
2014-Sep-08 04:32N 49°09' W 123°02'0 0.0
2014-Sep-08 03:32N 49°09' W 123°02'0 0.0
2014-Sep-08 02:32N 49°09' W 123°02'0 0.0
2014-Sep-08 01:26N 49°09' W 123°02'0 0.0
2014-Sep-08 00:32N 49°09' W 123°02'0 0.0
2014-Sep-07 23:32N 49°09' W 123°02'0 0.0
2014-Sep-07 22:32N 49°09' W 123°02'0 0.0
2014-Sep-07 21:32N 49°09' W 123°02'0 0.0
2014-Sep-07 20:29N 49°09' W 123°02'0 0.0
2014-Sep-07 19:32N 49°09' W 123°02'0 0.0
2014-Sep-07 18:32N 49°09' W 123°02'0 0.0
2014-Sep-07 17:32N 49°09' W 123°02'0 0.0
2014-Sep-07 16:32N 49°09' W 123°02'0 0.0
2014-Sep-07 15:32N 49°09' W 123°02'0 0.0
2014-Sep-07 14:32N 49°09' W 123°02'0 0.0
2014-Sep-07 13:32N 49°09' W 123°02'0 0.0
2014-Sep-07 12:32N 49°09' W 123°02'0 0.0
2014-Sep-07 11:32N 49°09' W 123°02'0 0.0
2014-Sep-07 10:32N 49°09' W 123°02'0 0.0
2014-Sep-07 09:32N 49°09' W 123°02'0 0.0
2014-Sep-07 08:32N 49°09' W 123°02'0 0.0
2014-Sep-07 07:32N 49°09' W 123°02'0 0.0
2014-Sep-07 06:32N 49°09' W 123°02'0 0.0
2014-Sep-07 05:32N 49°09' W 123°02'  

Dump ship's entire track history